sensor_id;sensor_type;location;lat;lon;timestamp;pressure;altitude;pressure_sealevel;temperature;humidity
68941;BME280;55982;51.476;7.552;2023-05-03T00:00:17;100967.78;;;3.49;100.00
68941;BME280;55982;51.476;7.552;2023-05-03T00:02:42;100966.88;;;3.47;100.00
68941;BME280;55982;51.476;7.552;2023-05-03T00:05:09;100968.59;;;3.48;100.00
68941;BME280;55982;51.476;7.552;2023-05-03T00:07:37;100962.53;;;3.46;100.00
68941;BME280;55982;51.476;7.552;2023-05-03T00:10:02;100962.50;;;3.42;100.00
68941;BME280;55982;51.476;7.552;2023-05-03T00:12:28;100961.53;;;3.37;100.00
68941;BME280;55982;51.476;7.552;2023-05-03T00:14:54;100962.25;;;3.27;100.00
68941;BME280;55982;51.476;7.552;2023-05-03T00:17:20;100960.47;;;3.23;100.00
68941;BME280;55982;51.476;7.552;2023-05-03T00:19:46;100952.66;;;3.18;100.00
68941;BME280;55982;51.476;7.552;2023-05-03T00:22:11;100960.44;;;3.18;100.00
68941;BME280;55982;51.476;7.552;2023-05-03T00:24:37;100954.28;;;3.13;100.00
68941;BME280;55982;51.476;7.552;2023-05-03T00:27:03;100954.28;;;3.13;100.00
68941;BME280;55982;51.476;7.552;2023-05-03T00:29:29;100956.06;;;3.14;100.00
68941;BME280;55982;51.476;7.552;2023-05-03T00:31:54;100952.66;;;3.18;100.00
68941;BME280;55982;51.476;7.552;2023-05-03T00:34:19;100945.75;;;3.17;100.00
68941;BME280;55982;51.476;7.552;2023-05-03T00:36:45;100949.19;;;3.16;100.00
68941;BME280;55982;51.476;7.552;2023-05-03T00:39:10;100950.00;;;3.14;100.00
68941;BME280;55982;51.476;7.552;2023-05-03T00:41:38;100944.78;;;3.09;100.00
68941;BME280;55982;51.476;7.552;2023-05-03T00:44:03;100940.44;;;3.08;100.00
68941;BME280;55982;51.476;7.552;2023-05-03T00:46:29;100949.06;;;3.07;100.00
68941;BME280;55982;51.476;7.552;2023-05-03T00:48:54;100945.66;;;3.11;100.00
68941;BME280;55982;51.476;7.552;2023-05-03T00:51:21;100950.88;;;3.14;100.00
68941;BME280;55982;51.476;7.552;2023-05-03T00:53:46;100942.19;;;3.09;100.00
68941;BME280;55982;51.476;7.552;2023-05-03T00:56:15;100938.75;;;3.10;100.00
68941;BME280;55982;51.476;7.552;2023-05-03T00:58:46;100956.88;;;3.13;100.00
68941;BME280;55982;51.476;7.552;2023-05-03T01:01:12;100963.00;;;3.18;100.00
68941;BME280;55982;51.476;7.552;2023-05-03T01:03:37;100963.09;;;3.24;100.00
68941;BME280;55982;51.476;7.552;2023-05-03T01:09:01;100965.69;;;3.24;100.00
68941;BME280;55982;51.476;7.552;2023-05-03T01:16:49;100967.84;;;2.97;100.00
68941;BME280;55982;51.476;7.552;2023-05-03T01:19:28;100967.72;;;2.88;100.00
68941;BME280;55982;51.476;7.552;2023-05-03T01:22:31;100965.75;;;2.75;100.00
68941;BME280;55982;51.476;7.552;2023-05-03T01:25:11;100977.63;;;2.64;100.00
68941;BME280;55982;51.476;7.552;2023-05-03T01:27:39;100964.59;;;2.56;100.00
68941;BME280;55982;51.476;7.552;2023-05-03T01:30:06;100965.28;;;2.48;100.00
68941;BME280;55982;51.476;7.552;2023-05-03T01:35:39;100968.50;;;2.35;100.00
68941;BME280;55982;51.476;7.552;2023-05-03T01:38:08;100970.19;;;2.33;100.00
68941;BME280;55982;51.476;7.552;2023-05-03T01:40:39;100972.75;;;2.31;100.00
68941;BME280;55982;51.476;7.552;2023-05-03T01:43:08;100971.84;;;2.31;100.00
68941;BME280;55982;51.476;7.552;2023-05-03T01:45:35;100969.25;;;2.29;100.00
68941;BME280;55982;51.476;7.552;2023-05-03T01:48:00;100977.03;;;2.31;100.00
68941;BME280;55982;51.476;7.552;2023-05-03T01:50:25;100978.78;;;2.32;100.00
68941;BME280;55982;51.476;7.552;2023-05-03T01:52:51;100986.50;;;2.30;100.00
68941;BME280;55982;51.476;7.552;2023-05-03T01:55:17;100982.16;;;2.28;100.00
68941;BME280;55982;51.476;7.552;2023-05-03T01:57:43;100987.31;;;2.28;100.00
68941;BME280;55982;51.476;7.552;2023-05-03T02:00:09;100989.88;;;2.28;100.00
68941;BME280;55982;51.476;7.552;2023-05-03T02:02:34;100990.78;;;2.30;100.00
68941;BME280;55982;51.476;7.552;2023-05-03T02:05:00;100989.88;;;2.28;100.00
68941;BME280;55982;51.476;7.552;2023-05-03T02:07:25;100999.44;;;2.32;100.00
68941;BME280;55982;51.476;7.552;2023-05-03T02:09:50;100997.69;;;2.31;100.00
68941;BME280;55982;51.476;7.552;2023-05-03T02:12:16;101002.84;;;2.31;100.00
68941;BME280;55982;51.476;7.552;2023-05-03T02:14:41;100999.31;;;2.26;100.00
68941;BME280;55982;51.476;7.552;2023-05-03T02:17:07;101008.72;;;2.22;100.00
68941;BME280;55982;51.476;7.552;2023-05-03T02:19:32;101006.91;;;2.18;100.00
68941;BME280;55982;51.476;7.552;2023-05-03T02:21:58;101005.88;;;2.09;100.00
68941;BME280;55982;51.476;7.552;2023-05-03T02:24:23;100992.00;;;2.04;100.00
68941;BME280;55982;51.476;7.552;2023-05-03T02:26:48;101001.50;;;2.06;100.00
68941;BME280;55982;51.476;7.552;2023-05-03T02:29:14;101005.78;;;2.06;100.00
68941;BME280;55982;51.476;7.552;2023-05-03T02:31:40;101014.44;;;2.08;100.00
68941;BME280;55982;51.476;7.552;2023-05-03T02:34:05;101020.41;;;2.04;100.00
68941;BME280;55982;51.476;7.552;2023-05-03T02:36:31;101024.66;;;2.02;100.00
68941;BME280;55982;51.476;7.552;2023-05-03T02:38:56;101026.38;;;2.03;100.00
68941;BME280;55982;51.476;7.552;2023-05-03T02:41:22;101021.28;;;2.06;100.00
68941;BME280;55982;51.476;7.552;2023-05-03T02:43:47;101022.97;;;2.04;100.00
68941;BME280;55982;51.476;7.552;2023-05-03T02:46:12;101035.88;;;2.04;100.00
68941;BME280;55982;51.476;7.552;2023-05-03T02:48:38;101031.53;;;2.03;100.00
68941;BME280;55982;51.476;7.552;2023-05-03T02:51:04;101028.06;;;2.01;100.00
68941;BME280;55982;51.476;7.552;2023-05-03T02:53:30;101033.22;;;2.01;100.00
68941;BME280;55982;51.476;7.552;2023-05-03T02:55:55;101022.84;;;1.98;100.00
68941;BME280;55982;51.476;7.552;2023-05-03T02:58:21;101032.19;;;1.93;100.00
68941;BME280;55982;51.476;7.552;2023-05-03T03:00:49;101017.47;;;1.88;100.00
68941;BME280;55982;51.476;7.552;2023-05-03T03:03:14;101023.41;;;1.84;100.00
68941;BME280;55982;51.476;7.552;2023-05-03T03:05:40;101019.00;;;1.79;100.00
68941;BME280;55982;51.476;7.552;2023-05-03T03:08:05;101020.63;;;1.74;100.00
68941;BME280;55982;51.476;7.552;2023-05-03T03:10:31;101014.59;;;1.73;100.00
68941;BME280;55982;51.476;7.552;2023-05-03T03:12:57;101021.44;;;1.73;100.00
68941;BME280;55982;51.476;7.552;2023-05-03T03:15:22;101012.84;;;1.72;100.00
68941;BME280;55982;51.476;7.552;2023-05-03T03:17:49;101003.44;;;1.74;100.00
68941;BME280;55982;51.476;7.552;2023-05-03T03:20:15;101000.00;;;1.75;100.00
68941;BME280;55982;51.476;7.552;2023-05-03T03:22:40;101002.56;;;1.74;100.00
68941;BME280;55982;51.476;7.552;2023-05-03T03:25:08;101005.16;;;1.75;100.00
68941;BME280;55982;51.476;7.552;2023-05-03T03:27:34;101006.97;;;1.79;100.00
68941;BME280;55982;51.476;7.552;2023-05-03T03:29:59;101000.09;;;1.78;100.00
68941;BME280;55982;51.476;7.552;2023-05-03T03:32:25;101008.59;;;1.74;100.00
68941;BME280;55982;51.476;7.552;2023-05-03T03:34:50;101005.94;;;1.71;100.00
68941;BME280;55982;51.476;7.552;2023-05-03T03:37:16;100997.28;;;1.69;100.00
68941;BME280;55982;51.476;7.552;2023-05-03T03:39:42;100998.97;;;1.67;100.00
68941;BME280;55982;51.476;7.552;2023-05-03T03:42:11;100998.06;;;1.65;100.00
68941;BME280;55982;51.476;7.552;2023-05-03T03:44:39;100992.84;;;1.62;100.00
68941;BME280;55982;51.476;7.552;2023-05-03T03:47:05;100990.72;;;1.43;100.00
68941;BME280;55982;51.476;7.552;2023-05-03T03:49:30;101001.91;;;1.44;100.00
68941;BME280;55982;51.476;7.552;2023-05-03T03:51:55;101001.09;;;1.46;100.00
68941;BME280;55982;51.476;7.552;2023-05-03T03:54:21;100995.88;;;1.43;100.00
68941;BME280;55982;51.476;7.552;2023-05-03T03:56:46;100990.72;;;1.43;100.00
68941;BME280;55982;51.476;7.552;2023-05-03T03:59:12;100988.19;;;1.46;100.00
68941;BME280;55982;51.476;7.552;2023-05-03T04:01:37;100987.44;;;1.50;100.00
68941;BME280;55982;51.476;7.552;2023-05-03T04:04:03;100990.84;;;1.49;100.00
68941;BME280;55982;51.476;7.552;2023-05-03T04:06:28;100985.69;;;1.48;100.00
68941;BME280;55982;51.476;7.552;2023-05-03T04:08:54;100992.13;;;1.68;100.00
68941;BME280;55982;51.476;7.552;2023-05-03T04:11:19;100994.84;;;1.75;100.00
68941;BME280;55982;51.476;7.552;2023-05-03T04:13:48;100996.00;;;1.88;100.00
68941;BME280;55982;51.476;7.552;2023-05-03T04:16:13;100991.81;;;1.95;100.00
68941;BME280;55982;51.476;7.552;2023-05-03T04:18:39;100989.22;;;1.95;100.00
68941;BME280;55982;51.476;7.552;2023-05-03T04:21:05;100991.88;;;1.98;100.00
68941;BME280;55982;51.476;7.552;2023-05-03T04:23:32;100990.31;;;2.06;100.00
68941;BME280;55982;51.476;7.552;2023-05-03T04:25:57;100987.19;;;2.22;100.00
68941;BME280;55982;51.476;7.552;2023-05-03T04:28:23;100989.88;;;2.28;100.00
68941;BME280;55982;51.476;7.552;2023-05-03T04:30:50;100978.81;;;2.35;100.00
68941;BME280;55982;51.476;7.552;2023-05-03T04:33:16;100980.69;;;2.42;100.00
68941;BME280;55982;51.476;7.552;2023-05-03T04:35:41;100979.94;;;2.49;100.00
68941;BME280;55982;51.476;7.552;2023-05-03T04:38:07;100969.72;;;2.53;100.00
68941;BME280;55982;51.476;7.552;2023-05-03T04:40:34;100970.53;;;2.51;100.00
68941;BME280;55982;51.476;7.552;2023-05-03T04:42:59;100970.53;;;2.51;100.00
68941;BME280;55982;51.476;7.552;2023-05-03T04:45:25;100966.28;;;2.54;100.00
68941;BME280;55982;51.476;7.552;2023-05-03T04:47:51;100968.94;;;2.59;100.00
68941;BME280;55982;51.476;7.552;2023-05-03T04:50:17;100972.47;;;2.64;100.00
68941;BME280;55982;51.476;7.552;2023-05-03T04:52:43;100977.69;;;2.67;100.00
68941;BME280;55982;51.476;7.552;2023-05-03T04:55:09;100972.56;;;2.70;100.00
68941;BME280;55982;51.476;7.552;2023-05-03T04:57:34;100976.06;;;2.72;100.00
68941;BME280;55982;51.476;7.552;2023-05-03T05:00:00;100974.38;;;2.74;100.00
68941;BME280;55982;51.476;7.552;2023-05-03T05:02:26;100978.88;;;2.86;100.00
68941;BME280;55982;51.476;7.552;2023-05-03T05:04:52;100978.09;;;2.91;100.00
68941;BME280;55982;51.476;7.552;2023-05-03T05:07:17;100990.34;;;3.04;100.00
68941;BME280;55982;51.476;7.552;2023-05-03T05:09:43;100990.34;;;3.04;100.00
68941;BME280;55982;51.476;7.552;2023-05-03T05:12:08;100995.59;;;3.07;100.00
68941;BME280;55982;51.476;7.552;2023-05-03T05:14:33;100993.84;;;3.06;100.00
68941;BME280;55982;51.476;7.552;2023-05-03T05:16:59;100997.41;;;3.14;100.00
68941;BME280;55982;51.476;7.552;2023-05-03T05:19:24;101002.69;;;3.20;100.00
68941;BME280;55982;51.476;7.552;2023-05-03T05:21:50;101004.47;;;3.24;100.00
68941;BME280;55982;51.476;7.552;2023-05-03T05:24:16;101002.78;;;3.26;100.00
68941;BME280;55982;51.476;7.552;2023-05-03T05:26:42;101009.81;;;3.36;100.00
68941;BME280;55982;51.476;7.552;2023-05-03T05:29:07;101013.38;;;3.44;100.00
68941;BME280;55982;51.476;7.552;2023-05-03T05:31:33;101011.81;;;3.55;100.00
68941;BME280;55982;51.476;7.552;2023-05-03T05:33:59;101001.56;;;3.61;100.00
68941;BME280;55982;51.476;7.552;2023-05-03T05:36:25;101008.94;;;3.96;100.00
68941;BME280;55982;51.476;7.552;2023-05-03T05:38:50;101005.81;;;4.24;100.00
68941;BME280;55982;51.476;7.552;2023-05-03T05:41:16;101006.34;;;3.96;100.00
68941;BME280;55982;51.476;7.552;2023-05-03T05:43:41;101009.19;;;4.17;100.00
68941;BME280;55982;51.476;7.552;2023-05-03T05:46:07;101010.47;;;4.56;100.00
68941;BME280;55982;51.476;7.552;2023-05-03T05:48:32;101008.91;;;4.75;100.00
68941;BME280;55982;51.476;7.552;2023-05-03T05:50:58;101012.53;;;4.94;100.00
68941;BME280;55982;51.476;7.552;2023-05-03T05:53:23;101019.66;;;5.17;100.00
68941;BME280;55982;51.476;7.552;2023-05-03T05:55:49;101023.22;;;5.33;100.00
68941;BME280;55982;51.476;7.552;2023-05-03T05:58:14;101025.03;;;5.41;100.00
68941;BME280;55982;51.476;7.552;2023-05-03T06:00:40;101031.84;;;5.27;100.00
68941;BME280;55982;51.476;7.552;2023-05-03T06:03:06;101031.25;;;5.65;100.00
68941;BME280;55982;51.476;7.552;2023-05-03T06:05:31;101035.66;;;5.81;100.00
68941;BME280;55982;51.476;7.552;2023-05-03T06:07:56;101040.22;;;6.27;100.00
68941;BME280;55982;51.476;7.552;2023-05-03T06:10:22;101040.22;;;6.24;100.00
68941;BME280;55982;51.476;7.552;2023-05-03T06:12:47;101035.94;;;6.44;100.00
68941;BME280;55982;51.476;7.552;2023-05-03T06:15:13;101023.88;;;6.60;100.00
68941;BME280;55982;51.476;7.552;2023-05-03T06:17:38;101032.53;;;6.69;100.00
68941;BME280;55982;51.476;7.552;2023-05-03T06:20:04;101029.06;;;6.58;100.00
68941;BME280;55982;51.476;7.552;2023-05-03T06:22:30;101041.22;;;6.79;100.00
68941;BME280;55982;51.476;7.552;2023-05-03T06:24:56;101043.00;;;7.13;100.00
68941;BME280;55982;51.476;7.552;2023-05-03T06:27:22;101043.00;;;7.04;100.00
68941;BME280;55982;51.476;7.552;2023-05-03T06:29:47;101045.63;;;7.08;100.00
68941;BME280;55982;51.476;7.552;2023-05-03T06:32:14;101052.56;;;7.39;100.00
68941;BME280;55982;51.476;7.552;2023-05-03T06:34:39;101049.94;;;7.00;100.00
68941;BME280;55982;51.476;7.552;2023-05-03T06:37:05;101061.19;;;7.73;100.00
68941;BME280;55982;51.476;7.552;2023-05-03T06:39:30;101049.00;;;7.77;100.00
68941;BME280;55982;51.476;7.552;2023-05-03T06:41:56;101049.06;;;7.34;100.00
68941;BME280;55982;51.476;7.552;2023-05-03T06:44:21;101051.63;;;7.71;100.00
68941;BME280;55982;51.476;7.552;2023-05-03T06:46:47;101041.94;;;8.24;100.00
68941;BME280;55982;51.476;7.552;2023-05-03T06:49:13;101042.94;;;7.81;100.00
68941;BME280;55982;51.476;7.552;2023-05-03T06:51:38;101036.72;;;8.16;100.00
68941;BME280;55982;51.476;7.552;2023-05-03T06:54:04;101032.84;;;8.94;100.00
68941;BME280;55982;51.476;7.552;2023-05-03T06:56:34;101036.06;;;9.30;100.00
68941;BME280;55982;51.476;7.552;2023-05-03T06:59:01;101034.00;;;8.48;100.00
68941;BME280;55982;51.476;7.552;2023-05-03T07:01:28;101027.97;;;8.43;100.00
68941;BME280;55982;51.476;7.552;2023-05-03T07:03:53;101032.31;;;9.55;100.00
68941;BME280;55982;51.476;7.552;2023-05-03T07:06:18;101023.50;;;10.42;100.00
68941;BME280;55982;51.476;7.552;2023-05-03T07:08:44;101022.25;;;10.69;100.00
68941;BME280;55982;51.476;7.552;2023-05-03T07:11:10;101033.38;;;10.84;100.00
68941;BME280;55982;51.476;7.552;2023-05-03T07:13:35;101029.16;;;11.31;100.00
68941;BME280;55982;51.476;7.552;2023-05-03T07:16:01;101034.88;;;11.00;100.00
68941;BME280;55982;51.476;7.552;2023-05-03T07:18:26;101027.03;;;11.51;100.00
68941;BME280;55982;51.476;7.552;2023-05-03T07:20:52;101031.66;;;11.85;100.00
68941;BME280;55982;51.476;7.552;2023-05-03T07:23:18;101029.97;;;11.83;100.00
68941;BME280;55982;51.476;7.552;2023-05-03T07:25:44;101027.50;;;11.74;100.00
68941;BME280;55982;51.476;7.552;2023-05-03T07:28:10;101026.06;;;10.48;100.00
68941;BME280;55982;51.476;7.552;2023-05-03T07:30:35;101027.53;;;11.22;100.00
68941;BME280;55982;51.476;7.552;2023-05-03T07:33:01;101019.63;;;12.18;100.00
68941;BME280;55982;51.476;7.552;2023-05-03T07:35:26;101020.06;;;12.40;100.00
68941;BME280;55982;51.476;7.552;2023-05-03T07:37:52;101020.47;;;12.61;100.00
68941;BME280;55982;51.476;7.552;2023-05-03T07:40:18;101013.41;;;12.63;100.00
68941;BME280;55982;51.476;7.552;2023-05-03T07:42:44;101008.97;;;13.72;100.00
68941;BME280;55982;51.476;7.552;2023-05-03T07:45:09;101004.47;;;13.44;100.00
68941;BME280;55982;51.476;7.552;2023-05-03T07:47:35;101001.81;;;11.91;100.00
68941;BME280;55982;51.476;7.552;2023-05-03T07:50:05;101012.72;;;12.14;100.00
68941;BME280;55982;51.476;7.552;2023-05-03T07:52:38;101006.81;;;12.84;100.00
68941;BME280;55982;51.476;7.552;2023-05-03T07:55:05;101005.28;;;11.46;100.00
68941;BME280;55982;51.476;7.552;2023-05-03T07:57:31;101007.34;;;10.74;100.00
68941;BME280;55982;51.476;7.552;2023-05-03T07:59:56;101005.72;;;11.22;100.00
68941;BME280;55982;51.476;7.552;2023-05-03T08:02:22;101008.06;;;10.83;100.00
68941;BME280;55982;51.476;7.552;2023-05-03T08:04:47;100999.41;;;10.19;100.00
68941;BME280;55982;51.476;7.552;2023-05-03T08:07:13;101004.72;;;10.11;100.00
68941;BME280;55982;51.476;7.552;2023-05-03T08:09:39;100999.34;;;10.25;100.00
68941;BME280;55982;51.476;7.552;2023-05-03T08:12:05;101005.78;;;10.64;100.00
68941;BME280;55982;51.476;7.552;2023-05-03T08:14:30;101001.97;;;10.22;100.00
68941;BME280;55982;51.476;7.552;2023-05-03T08:16:56;100996.63;;;9.58;100.00
68941;BME280;55982;51.476;7.552;2023-05-03T08:19:21;100998.84;;;9.93;100.00
68941;BME280;55982;51.476;7.552;2023-05-03T08:21:47;101001.66;;;10.46;100.00
68941;BME280;55982;51.476;7.552;2023-05-03T08:24:12;101000.81;;;10.44;100.00
68941;BME280;55982;51.476;7.552;2023-05-03T08:26:39;100996.53;;;12.35;100.00
68941;BME280;55982;51.476;7.552;2023-05-03T08:29:05;100991.00;;;13.88;98.29
68941;BME280;55982;51.476;7.552;2023-05-03T08:31:31;100996.59;;;14.07;88.44
68941;BME280;55982;51.476;7.552;2023-05-03T08:33:57;100989.41;;;13.17;87.74
68941;BME280;55982;51.476;7.552;2023-05-03T08:36:22;100990.63;;;13.02;88.77
68941;BME280;55982;51.476;7.552;2023-05-03T08:38:48;100988.38;;;13.56;95.04
68941;BME280;55982;51.476;7.552;2023-05-03T08:41:30;100987.31;;;12.57;100.00
68941;BME280;55982;51.476;7.552;2023-05-03T08:43:57;100986.94;;;13.44;90.74
68941;BME280;55982;51.476;7.552;2023-05-03T08:46:24;100978.66;;;13.26;89.78
68941;BME280;55982;51.476;7.552;2023-05-03T08:48:53;100982.34;;;13.19;87.06
68941;BME280;55982;51.476;7.552;2023-05-03T08:51:20;100987.66;;;13.49;90.07
68941;BME280;55982;51.476;7.552;2023-05-03T08:53:46;100996.31;;;11.59;98.19
68941;BME280;55982;51.476;7.552;2023-05-03T08:56:19;100993.16;;;12.68;94.74
68941;BME280;55982;51.476;7.552;2023-05-03T08:58:48;100993.69;;;13.21;88.84
68941;BME280;55982;51.476;7.552;2023-05-03T09:01:13;100994.94;;;13.72;91.56
68941;BME280;55982;51.476;7.552;2023-05-03T09:03:50;101010.19;;;15.07;90.00
68941;BME280;55982;51.476;7.552;2023-05-03T09:06:21;101009.47;;;13.53;82.73
68941;BME280;55982;51.476;7.552;2023-05-03T09:08:47;101009.03;;;14.32;78.91
68941;BME280;55982;51.476;7.552;2023-05-03T09:11:20;101010.56;;;15.22;81.48
68941;BME280;55982;51.476;7.552;2023-05-03T09:13:46;101002.25;;;15.08;74.00
68941;BME280;55982;51.476;7.552;2023-05-03T09:16:24;100993.88;;;13.47;82.06
68941;BME280;55982;51.476;7.552;2023-05-03T09:18:59;100987.28;;;13.95;83.16
68941;BME280;55982;51.476;7.552;2023-05-03T09:21:25;100993.78;;;13.16;80.83
68941;BME280;55982;51.476;7.552;2023-05-03T09:23:50;100988.38;;;12.85;88.08
68941;BME280;55982;51.476;7.552;2023-05-03T09:26:34;100980.63;;;14.43;89.14
68941;BME280;55982;51.476;7.552;2023-05-03T09:29:01;100989.03;;;15.10;82.98
68941;BME280;55982;51.476;7.552;2023-05-03T09:31:29;100983.78;;;16.08;75.25
68941;BME280;55982;51.476;7.552;2023-05-03T09:33:55;100986.31;;;13.67;75.77
68941;BME280;55982;51.476;7.552;2023-05-03T09:36:21;100989.50;;;13.14;75.90
68941;BME280;55982;51.476;7.552;2023-05-03T09:38:47;100985.53;;;14.25;78.34
68941;BME280;55982;51.476;7.552;2023-05-03T09:41:13;100996.97;;;15.34;77.04
68941;BME280;55982;51.476;7.552;2023-05-03T09:43:51;100972.25;;;13.01;78.95
68941;BME280;55982;51.476;7.552;2023-05-03T09:46:17;100977.53;;;14.29;81.74
68941;BME280;55982;51.476;7.552;2023-05-03T09:48:43;100965.59;;;14.75;73.97
68941;BME280;55982;51.476;7.552;2023-05-03T09:51:10;100979.75;;;13.51;78.76
68941;BME280;55982;51.476;7.552;2023-05-03T09:53:37;100977.13;;;14.71;72.64
68941;BME280;55982;51.476;7.552;2023-05-03T09:56:07;100970.06;;;14.43;79.79
68941;BME280;55982;51.476;7.552;2023-05-03T09:58:35;100974.53;;;15.23;74.17
68941;BME280;55982;51.476;7.552;2023-05-03T10:01:01;100967.97;;;14.54;72.86
68941;BME280;55982;51.476;7.552;2023-05-03T10:03:35;100961.63;;;16.12;69.16
68941;BME280;55982;51.476;7.552;2023-05-03T10:06:05;100960.59;;;15.93;67.03
68941;BME280;55982;51.476;7.552;2023-05-03T10:08:39;100972.94;;;15.68;68.19
68941;BME280;55982;51.476;7.552;2023-05-03T10:11:12;100960.34;;;15.76;71.40
68941;BME280;55982;51.476;7.552;2023-05-03T10:13:38;100956.09;;;17.28;69.87
68941;BME280;55982;51.476;7.552;2023-05-03T10:16:06;100947.97;;;16.24;67.91
68941;BME280;55982;51.476;7.552;2023-05-03T10:18:36;100951.41;;;16.26;66.11
68941;BME280;55982;51.476;7.552;2023-05-03T10:21:10;100955.09;;;15.99;66.83
68941;BME280;55982;51.476;7.552;2023-05-03T10:24:08;100952.75;;;16.15;65.21
68941;BME280;55982;51.476;7.552;2023-05-03T10:26:35;100952.44;;;16.45;67.32
68941;BME280;55982;51.476;7.552;2023-05-03T10:29:00;100945.16;;;15.83;69.38
68941;BME280;55982;51.476;7.552;2023-05-03T10:31:46;100950.91;;;15.46;64.95
68941;BME280;55982;51.476;7.552;2023-05-03T10:34:25;100944.16;;;14.30;70.01
68941;BME280;55982;51.476;7.552;2023-05-03T10:36:55;100929.22;;;15.12;66.58
68941;BME280;55982;51.476;7.552;2023-05-03T10:39:21;100939.06;;;14.81;71.79
68941;BME280;55982;51.476;7.552;2023-05-03T10:42:04;100934.31;;;15.41;74.04
68941;BME280;55982;51.476;7.552;2023-05-03T10:44:49;100924.63;;;15.43;68.82
68941;BME280;55982;51.476;7.552;2023-05-03T10:47:16;100919.22;;;15.71;68.45
68941;BME280;55982;51.476;7.552;2023-05-03T10:49:42;100936.72;;;14.98;69.59
68941;BME280;55982;51.476;7.552;2023-05-03T10:57:37;100926.25;;;16.39;69.75
68941;BME280;55982;51.476;7.552;2023-05-03T11:02:41;100909.59;;;17.22;63.58
68941;BME280;55982;51.476;7.552;2023-05-03T11:05:12;100906.56;;;17.11;64.54
68941;BME280;55982;51.476;7.552;2023-05-03T11:07:39;100909.28;;;16.23;69.59
68941;BME280;55982;51.476;7.552;2023-05-03T11:10:18;100923.81;;;15.15;68.79
68941;BME280;55982;51.476;7.552;2023-05-03T11:12:43;100910.78;;;15.12;65.94
68941;BME280;55982;51.476;7.552;2023-05-03T11:15:09;100904.78;;;17.32;65.25
68941;BME280;55982;51.476;7.552;2023-05-03T11:17:37;100898.75;;;16.88;60.95
68941;BME280;55982;51.476;7.552;2023-05-03T11:20:05;100897.34;;;17.80;63.33
68941;BME280;55982;51.476;7.552;2023-05-03T11:22:33;100903.22;;;18.43;61.64
68941;BME280;55982;51.476;7.552;2023-05-03T11:24:59;100901.78;;;18.54;61.81
68941;BME280;55982;51.476;7.552;2023-05-03T11:27:25;100894.31;;;17.09;58.63
68941;BME280;55982;51.476;7.552;2023-05-03T11:29:50;100893.50;;;18.24;60.44
68941;BME280;55982;51.476;7.552;2023-05-03T11:32:17;100903.06;;;17.90;56.54
68941;BME280;55982;51.476;7.552;2023-05-03T11:34:44;100903.81;;;15.34;60.78
68941;BME280;55982;51.476;7.552;2023-05-03T11:37:10;100893.34;;;16.70;60.92
68941;BME280;55982;51.476;7.552;2023-05-03T11:39:36;100894.44;;;17.66;62.13
68941;BME280;55982;51.476;7.552;2023-05-03T11:42:02;100883.31;;;17.78;60.21
68941;BME280;55982;51.476;7.552;2023-05-03T11:44:28;100888.91;;;17.32;62.95
68941;BME280;55982;51.476;7.552;2023-05-03T11:46:54;100885.69;;;16.19;61.97
68941;BME280;55982;51.476;7.552;2023-05-03T11:49:20;100882.16;;;17.45;60.77
68941;BME280;55982;51.476;7.552;2023-05-03T11:51:46;100881.81;;;16.27;59.00
68941;BME280;55982;51.476;7.552;2023-05-03T11:54:13;100878.31;;;16.92;61.63
68941;BME280;55982;51.476;7.552;2023-05-03T11:56:38;100882.81;;;17.50;60.12
68941;BME280;55982;51.476;7.552;2023-05-03T11:59:03;100884.00;;;17.63;56.60
68941;BME280;55982;51.476;7.552;2023-05-03T12:01:29;100872.75;;;16.78;57.33
68941;BME280;55982;51.476;7.552;2023-05-03T12:03:57;100884.72;;;16.86;58.42
68941;BME280;55982;51.476;7.552;2023-05-03T12:06:23;100887.28;;;16.44;58.32
68941;BME280;55982;51.476;7.552;2023-05-03T12:08:49;100880.75;;;17.95;56.10
68941;BME280;55982;51.476;7.552;2023-05-03T12:11:14;100894.72;;;17.20;61.02
68941;BME280;55982;51.476;7.552;2023-05-03T12:13:40;100882.50;;;17.37;57.98
68941;BME280;55982;51.476;7.552;2023-05-03T12:16:07;100880.63;;;17.60;57.44
68941;BME280;55982;51.476;7.552;2023-05-03T12:18:49;100874.25;;;17.64;56.10
68941;BME280;55982;51.476;7.552;2023-05-03T12:21:16;100892.25;;;18.32;57.53
68941;BME280;55982;51.476;7.552;2023-05-03T12:23:41;100876.16;;;19.23;52.37
68941;BME280;55982;51.476;7.552;2023-05-03T12:26:08;100870.50;;;17.29;54.87
68941;BME280;55982;51.476;7.552;2023-05-03T12:28:34;100871.13;;;17.56;55.25
68941;BME280;55982;51.476;7.552;2023-05-03T12:30:59;100870.25;;;18.48;54.26
68941;BME280;55982;51.476;7.552;2023-05-03T12:33:25;100862.47;;;19.65;56.46
68941;BME280;55982;51.476;7.552;2023-05-03T12:35:51;100859.22;;;17.05;54.31
68941;BME280;55982;51.476;7.552;2023-05-03T12:38:16;100856.13;;;17.93;56.71
68941;BME280;55982;51.476;7.552;2023-05-03T12:40:42;100859.78;;;18.64;53.96
68941;BME280;55982;51.476;7.552;2023-05-03T12:43:09;100855.66;;;18.40;55.45
68941;BME280;55982;51.476;7.552;2023-05-03T12:45:34;100855.25;;;18.66;54.73
68941;BME280;55982;51.476;7.552;2023-05-03T12:48:00;100848.53;;;17.86;56.93
68941;BME280;55982;51.476;7.552;2023-05-03T12:50:26;100850.22;;;17.50;56.04
68941;BME280;55982;51.476;7.552;2023-05-03T12:52:52;100847.03;;;17.80;58.16
68941;BME280;55982;51.476;7.552;2023-05-03T12:55:17;100852.97;;;18.22;61.24
68941;BME280;55982;51.476;7.552;2023-05-03T12:57:43;100836.22;;;18.58;53.76
68941;BME280;55982;51.476;7.552;2023-05-03T13:00:09;100839.72;;;17.28;57.03
68941;BME280;55982;51.476;7.552;2023-05-03T13:02:35;100843.66;;;18.33;58.10
68941;BME280;55982;51.476;7.552;2023-05-03T13:05:01;100845.88;;;16.88;54.80